Time;durP1;ratioP1;P1;durP2;ratioP2;P2;SDS_P1;SDS_P2;PMS_P1;PMS_P2;Temp;Humidity;BMP_temperature;BMP_pressure;BME280_temperature;BME280_humidity;BME280_pressure;Samples;Min_cycle;Max_cycle;Signal;HPM_P1;HPM_P2
2023/04/05 00:04:27;;;;;;;7.60;5.50;;;22.30;53.40;;;;;;229864;1268;22988;-44
2023/04/05 00:09:31;;;;;;;5.50;4.40;;;22.40;53.20;;;;;;222178;1255;25461;-42
2023/04/05 00:14:35;;;;;;;5.10;4.20;;;22.40;53.00;;;;;;222227;1254;25962;-44
2023/04/05 00:19:42;;;;;;;6.90;4.60;;;22.30;53.20;;;;;;222369;1254;22633;-50
2023/04/05 00:24:46;;;;;;;6.90;4.90;;;22.30;53.20;;;;;;222319;1257;22535;-45
2023/04/05 00:29:50;;;;;;;6.30;4.70;;;22.30;53.30;;;;;;222422;1255;23427;-44
2023/04/05 00:34:54;;;;;;;5.60;4.60;;;22.20;53.00;;;;;;222209;1254;24438;-43
2023/04/05 00:39:59;;;;;;;6.00;4.90;;;22.20;53.00;;;;;;222208;1256;22510;-46
2023/04/05 00:45:04;;;;;;;6.20;4.80;;;22.20;53.50;;;;;;222182;1249;23903;-45
2023/04/05 00:50:11;;;;;;;5.40;4.70;;;22.10;52.90;;;;;;222351;1254;24187;-41
2023/04/05 00:55:16;;;;;;;5.90;4.80;;;22.10;52.90;;;;;;222484;1255;25275;-43
2023/04/05 01:00:21;;;;;;;7.20;4.90;;;22.10;53.00;;;;;;222077;1253;25221;-43
2023/04/05 01:05:31;;;;;;;5.60;4.70;;;22.10;53.00;;;;;;222311;1262;22522;-40
2023/04/05 01:10:41;;;;;;;5.80;4.20;;;22.20;53.30;;;;;;222050;1253;24961;-39
2023/04/05 01:15:46;;;;;;;9.80;4.60;;;22.40;53.50;;;;;;222219;1249;22643;-45
2023/04/05 01:21:23;;;;;;;5.70;4.70;;;22.40;52.90;;;;;;222077;1256;24289;-42
2023/04/05 01:26:42;;;;;;;6.10;5.00;;;22.50;52.50;;;;;;222199;1254;22600;-45
2023/04/05 01:31:53;;;;;;;4.80;4.30;;;22.50;52.30;;;;;;222204;1257;24257;-45
2023/04/05 01:37:07;;;;;;;5.80;4.60;;;22.50;52.30;;;;;;222263;1262;23297;-45
2023/04/05 01:42:12;;;;;;;6.40;5.00;;;22.50;52.20;;;;;;222375;1254;22535;-42
2023/04/05 01:47:16;;;;;;;5.10;4.40;;;22.40;52.20;;;;;;223786;1255;23882;-43
2023/04/05 01:52:20;;;;;;;7.80;5.00;;;22.50;52.00;;;;;;222138;1262;24224;-46
2023/04/05 01:57:25;;;;;;;5.80;4.90;;;22.50;52.00;;;;;;222392;1255;22518;-43
2023/04/05 02:02:29;;;;;;;6.80;6.00;;;22.40;52.10;;;;;;222205;1258;25388;-42
2023/04/05 02:07:33;;;;;;;5.40;4.70;;;22.40;52.20;;;;;;230002;1264;22147;-44
2023/04/05 02:12:38;;;;;;;6.20;4.60;;;22.40;51.90;;;;;;230144;1262;22332;-43
2023/04/05 02:17:44;;;;;;;8.00;5.60;;;22.50;51.50;;;;;;228214;1265;24180;-44
2023/04/05 02:22:50;;;;;;;6.10;5.00;;;22.60;51.40;;;;;;229848;1265;22092;-44
2023/04/05 02:27:54;;;;;;;5.50;5.00;;;22.60;51.00;;;;;;230001;1265;22325;-44
2023/04/05 02:32:58;;;;;;;6.30;4.80;;;22.70;51.00;;;;;;228614;1262;22510;-44
2023/04/05 02:38:04;;;;;;;5.80;5.20;;;22.70;51.40;;;;;;222745;1255;25387;-47
2023/04/05 02:43:09;;;;;;;8.00;5.10;;;22.60;51.60;;;;;;222450;1257;22513;-43
2023/04/05 02:48:14;;;;;;;9.10;5.10;;;22.50;51.70;;;;;;222470;1256;24211;-45
2023/04/05 02:53:20;;;;;;;6.70;5.30;;;22.50;51.50;;;;;;222212;1253;22504;-43
2023/04/05 02:58:31;;;;;;;8.10;5.20;;;22.50;51.90;;;;;;222252;1260;22665;-42
2023/04/05 03:03:36;;;;;;;5.10;4.60;;;22.50;51.50;;;;;;222492;1253;25206;-43
2023/04/05 03:08:42;;;;;;;6.80;5.50;;;22.50;51.70;;;;;;222546;1262;22542;-42
2023/04/05 03:13:48;;;;;;;6.40;5.10;;;22.50;51.40;;;;;;222389;1262;22511;-45
2023/04/05 03:19:05;;;;;;;6.10;5.20;;;22.40;51.40;;;;;;222165;1254;22511;-41
2023/04/05 03:24:10;;;;;;;7.00;5.00;;;22.40;51.60;;;;;;230090;1263;22239;-43
2023/04/05 03:29:16;;;;;;;6.70;5.00;;;22.40;51.10;;;;;;229905;1268;22148;-43
2023/04/05 03:34:27;;;;;;;6.50;4.80;;;22.60;50.90;;;;;;225742;1255;25275;-43
2023/04/05 03:39:35;;;;;;;6.80;5.10;;;22.60;50.80;;;;;;222375;1262;22526;-45
2023/04/05 03:44:40;;;;;;;7.80;5.60;;;22.50;51.60;;;;;;222020;1256;22515;-45
2023/04/05 03:49:45;;;;;;;7.00;5.10;;;22.40;51.70;;;;;;222356;1254;22564;-45
2023/04/05 03:54:49;;;;;;;5.40;4.50;;;22.40;51.90;;;;;;222468;1265;22523;-45
2023/04/05 03:59:56;;;;;;;9.30;5.70;;;22.50;51.50;;;;;;222366;1262;24197;-44
2023/04/05 04:05:03;;;;;;;5.90;5.30;;;22.50;51.30;;;;;;222081;1255;22719;-41
2023/04/05 04:10:10;;;;;;;7.50;5.70;;;22.50;51.30;;;;;;222103;1255;25282;-42
2023/04/05 04:15:15;;;;;;;5.80;5.00;;;22.60;51.10;;;;;;222248;1255;25245;-43
2023/04/05 04:20:33;;;;;;;6.20;5.20;;;22.50;51.10;;;;;;222347;1262;22521;-44
2023/04/05 04:25:56;;;;;;;5.80;4.80;;;22.50;50.90;;;;;;222150;1254;22512;-42
2023/04/05 04:31:25;;;;;;;6.10;5.10;;;22.50;50.80;;;;;;222453;1255;22763;-43
2023/04/05 04:36:41;;;;;;;5.70;5.00;;;22.50;50.80;;;;;;222210;1256;22517;-42
2023/04/05 04:42:18;;;;;;;9.40;4.50;;;22.40;50.80;;;;;;222390;1262;22610;-47
2023/04/05 04:47:46;;;;;;;6.80;5.40;;;22.40;50.80;;;;;;222243;1246;22975;-46
2023/04/05 04:53:17;;;;;;;7.00;5.50;;;22.40;50.70;;;;;;222511;1265;24299;-48
2023/04/05 04:58:25;;;;;;;6.60;5.20;;;22.40;50.60;;;;;;222386;1262;24186;-48
2023/04/05 05:03:37;;;;;;;6.60;5.00;;;22.50;50.70;;;;;;222390;1253;24193;-46
2023/04/05 05:08:42;;;;;;;7.30;5.60;;;22.50;50.80;;;;;;222568;1254;25316;-47
2023/04/05 05:13:46;;;;;;;6.20;5.60;;;22.50;50.50;;;;;;222134;1262;23096;-45
2023/04/05 05:18:58;;;;;;;7.40;5.80;;;22.50;50.10;;;;;;222137;1255;22507;-45
2023/04/05 05:24:10;;;;;;;6.20;5.20;;;22.60;49.60;;;;;;222077;1255;23877;-47
2023/04/05 05:29:14;;;;;;;7.40;6.10;;;22.60;49.20;;;;;;222442;1256;22616;-48
2023/04/05 05:34:21;;;;;;;7.00;5.50;;;22.60;49.50;;;;;;222334;1262;24218;-46
2023/04/05 05:39:28;;;;;;;7.20;5.80;;;22.60;49.00;;;;;;222014;1269;22530;-45
2023/04/05 05:44:33;;;;;;;9.20;6.00;;;22.50;49.30;;;;;;222405;1246;22511;-48
2023/04/05 05:49:37;;;;;;;8.20;5.60;;;22.50;49.10;;;;;;222413;1247;22611;-50
2023/04/05 05:54:41;;;;;;;7.40;5.60;;;22.50;49.30;;;;;;222434;1262;22587;-56
2023/04/05 05:59:45;;;;;;;8.00;5.90;;;22.40;49.40;;;;;;222403;1265;23912;-56
2023/04/05 06:04:49;;;;;;;7.50;5.50;;;22.40;49.60;;;;;;222443;1255;22813;-52
2023/04/05 06:09:53;;;;;;;8.20;6.20;;;22.50;49.90;;;;;;222426;1262;22526;-50
2023/04/05 06:14:58;;;;;;;6.70;5.40;;;22.40;50.50;;;;;;222432;1262;24369;-56
2023/04/05 06:20:02;;;;;;;12.40;5.50;;;22.50;50.50;;;;;;222557;1262;24365;-49
2023/04/05 06:25:08;;;;;;;10.60;5.70;;;22.50;52.20;;;;;;222401;1262;162873;-52
2023/04/05 06:30:12;;;;;;;11.90;5.40;;;22.60;51.80;;;;;;222376;1262;22626;-54
2023/04/05 06:35:16;;;;;;;9.30;5.60;;;22.60;51.70;;;;;;222504;1262;23192;-52
2023/04/05 06:40:20;;;;;;;9.90;5.60;;;22.50;53.20;;;;;;222532;1262;22610;-52
2023/04/05 06:45:25;;;;;;;9.50;6.80;;;22.50;54.90;;;;;;220943;1270;25359;-51
2023/04/05 06:50:29;;;;;;;19.30;6.10;;;22.50;54.20;;;;;;220828;1269;25299;-50
2023/04/05 06:55:33;;;;;;;10.50;5.50;;;22.50;54.40;;;;;;220856;1264;25220;-52
2023/04/05 07:00:37;;;;;;;8.80;6.20;;;22.60;54.20;;;;;;221010;1269;24187;-52
2023/04/05 07:05:59;;;;;;;13.30;5.50;;;22.60;54.10;;;;;;222172;1266;22490;-53
2023/04/05 07:11:03;;;;;;;10.60;6.00;;;22.40;54.50;;;;;;222325;1261;22526;-50
2023/04/05 07:16:07;;;;;;;14.80;6.20;;;22.50;54.20;;;;;;222028;1266;22501;-49
2023/04/05 07:21:11;;;;;;;11.20;5.80;;;22.40;53.50;;;;;;222598;1262;22645;-50
2023/04/05 07:26:16;;;;;;;17.80;6.40;;;22.30;53.20;;;;;;229758;1254;22515;-48
2023/04/05 07:31:20;;;;;;;10.50;7.80;;;22.50;52.10;;;;;;229996;1265;22157;-50
2023/04/05 07:36:25;;;;;;;8.70;6.70;;;22.50;51.40;;;;;;223478;1264;22524;-54
2023/04/05 07:41:34;;;;;;;9.30;7.20;;;22.50;51.60;;;;;;221958;1271;25320;-50
2023/04/05 07:46:43;;;;;;;8.80;6.60;;;22.40;51.50;;;;;;221823;1257;22797;-51
2023/04/05 07:51:54;;;;;;;9.90;7.60;;;22.30;51.60;;;;;;221875;1267;22511;-46
2023/04/05 07:56:59;;;;;;;10.30;6.90;;;22.20;51.60;;;;;;221993;1254;25311;-52
2023/04/05 08:02:03;;;;;;;12.10;6.80;;;22.10;51.50;;;;;;222113;1258;22635;-53
2023/04/05 08:07:17;;;;;;;10.00;6.60;;;22.20;51.40;;;;;;222004;1262;22531;-52
2023/04/05 08:12:21;;;;;;;9.80;6.60;;;22.20;51.60;;;;;;221980;1265;23909;-51
2023/04/05 08:17:27;;;;;;;10.80;7.00;;;22.10;51.10;;;;;;221875;1248;24072;-51
2023/04/05 08:22:31;;;;;;;8.80;6.50;;;22.10;51.10;;;;;;222002;1269;22975;-52
2023/04/05 08:27:34;;;;;;;7.50;6.70;;;22.10;51.00;;;;;;221850;1256;24383;-51
2023/04/05 08:32:38;;;;;;;8.40;7.20;;;22.10;51.00;;;;;;222745;1256;23524;-52
2023/04/05 08:37:43;;;;;;;9.10;6.30;;;22.20;50.90;;;;;;222394;1254;22619;-49
2023/04/05 08:43:13;;;;;;;6.80;5.60;;;22.30;50.80;;;;;;222426;1253;25373;-50
2023/04/05 08:48:19;;;;;;;8.20;7.20;;;22.20;50.70;;;;;;222219;1263;26632;-53
2023/04/05 08:53:23;;;;;;;7.30;5.90;;;22.10;50.60;;;;;;222285;1262;25353;-53
2023/04/05 08:58:30;;;;;;;7.20;6.20;;;22.30;50.50;;;;;;222352;1261;24194;-54
2023/04/05 09:03:36;;;;;;;12.10;6.60;;;22.20;50.40;;;;;;222361;1254;22574;-52
2023/04/05 09:08:40;;;;;;;11.20;6.50;;;22.20;50.70;;;;;;222395;1255;25201;-53
2023/04/05 09:13:44;;;;;;;9.80;6.60;;;22.10;50.70;;;;;;222237;1263;25298;-55
2023/04/05 09:18:49;;;;;;;8.30;6.40;;;22.00;50.70;;;;;;222350;1264;23877;-53
2023/04/05 09:23:54;;;;;;;7.30;5.60;;;22.00;50.60;;;;;;222367;1263;25193;-57
2023/04/05 09:28:59;;;;;;;12.00;6.20;;;22.10;50.60;;;;;;222024;1253;24261;-51
2023/04/05 09:34:05;;;;;;;9.90;6.30;;;22.00;50.80;;;;;;222336;1262;24120;-58
2023/04/05 09:39:09;;;;;;;7.40;5.70;;;22.00;51.10;;;;;;222409;1263;22542;-60
2023/04/05 09:44:13;;;;;;;10.70;5.70;;;22.00;50.60;;;;;;222488;1265;23878;-56
2023/04/05 09:49:32;;;;;;;7.60;5.50;;;22.00;50.90;;;;;;222110;1262;22527;-54
2023/04/05 09:54:43;;;;;;;11.50;5.50;;;22.00;51.10;;;;;;222213;1262;22541;-54
2023/04/05 09:59:48;;;;;;;10.80;5.60;;;22.00;50.70;;;;;;222418;1265;22633;-54
2023/04/05 10:04:53;;;;;;;10.30;6.20;;;22.10;50.80;;;;;;223175;1253;24183;-52
2023/04/05 10:09:57;;;;;;;9.90;5.40;;;22.10;50.60;;;;;;224839;1262;25270;-55
2023/04/05 10:15:02;;;;;;;11.30;5.80;;;22.00;50.70;;;;;;222644;1258;24362;-61
2023/04/05 10:20:18;;;;;;;8.20;4.90;;;22.00;50.70;;;;;;222301;1263;24199;-56
2023/04/05 10:25:30;;;;;;;7.80;5.30;;;21.90;50.70;;;;;;222168;1252;24230;-55
2023/04/05 10:30:37;;;;;;;10.00;5.10;;;21.90;50.70;;;;;;222234;1262;22531;-55
2023/04/05 10:35:45;;;;;;;7.80;5.20;;;21.90;50.70;;;;;;222320;1262;26092;-55
2023/04/05 10:40:54;;;;;;;10.40;5.10;;;21.90;50.50;;;;;;222366;1261;22819;-57
2023/04/05 10:45:58;;;;;;;10.80;4.80;;;21.90;50.40;;;;;;222308;1262;23652;-61
2023/04/05 10:51:03;;;;;;;12.60;5.70;;;21.90;50.30;;;;;;222406;1256;25388;-57
2023/04/05 10:56:07;;;;;;;10.70;5.60;;;21.90;50.30;;;;;;222371;1263;24200;-53
2023/04/05 11:01:12;;;;;;;9.00;4.90;;;21.80;50.30;;;;;;222434;1265;23141;-55
2023/04/05 11:06:18;;;;;;;10.80;5.30;;;21.90;50.20;;;;;;222348;1263;24336;-54
2023/04/05 11:11:24;;;;;;;7.80;4.60;;;21.90;50.10;;;;;;222487;1262;22626;-54
2023/04/05 11:16:39;;;;;;;9.20;4.90;;;21.90;50.00;;;;;;222113;1262;24174;-54
2023/04/05 11:21:46;;;;;;;8.50;5.40;;;21.90;50.00;;;;;;222309;1263;22623;-56
2023/04/05 11:26:53;;;;;;;7.60;5.10;;;21.80;50.00;;;;;;222336;1263;22531;-54
2023/04/05 11:32:10;;;;;;;9.00;5.10;;;21.80;49.90;;;;;;222265;1254;22581;-58
2023/04/05 11:37:14;;;;;;;9.40;5.70;;;21.90;50.40;;;;;;222279;1266;22507;-56
2023/04/05 11:42:19;;;;;;;9.80;4.80;;;21.80;50.00;;;;;;222504;1263;22514;-54
2023/04/05 11:47:23;;;;;;;10.20;4.80;;;21.80;51.70;;;;;;222332;1265;24394;-58
2023/04/05 11:52:27;;;;;;;7.00;4.80;;;21.80;51.70;;;;;;222403;1269;22523;-54
2023/04/05 11:57:32;;;;;;;8.60;4.90;;;21.90;51.80;;;;;;222209;1262;22534;-55
2023/04/05 12:02:36;;;;;;;8.50;4.40;;;22.00;51.20;;;;;;222335;1265;22569;-56
2023/04/05 12:07:40;;;;;;;19.90;10.20;;;22.20;51.50;;;;;;222430;1263;24175;-57
2023/04/05 12:12:46;;;;;;;18.00;10.40;;;22.40;51.20;;;;;;222197;1263;22533;-59
2023/04/05 12:17:53;;;;;;;14.90;10.10;;;22.50;51.60;;;;;;222399;1265;24351;-57
2023/04/05 12:22:57;;;;;;;15.00;9.10;;;22.60;51.60;;;;;;222293;1253;24240;-58
2023/04/05 12:28:06;;;;;;;13.30;8.50;;;22.60;51.40;;;;;;222328;1264;22515;-56
2023/04/05 12:33:10;;;;;;;10.30;7.40;;;22.60;51.10;;;;;;222362;1256;22514;-60
2023/04/05 12:38:16;;;;;;;11.80;7.30;;;22.60;51.30;;;;;;222345;1261;25259;-57
2023/04/05 12:43:22;;;;;;;9.90;7.00;;;22.70;51.10;;;;;;222452;1263;22568;-53
2023/04/05 12:48:26;;;;;;;10.00;7.00;;;22.60;51.00;;;;;;222153;1263;22605;-51
2023/04/05 12:53:30;;;;;;;9.50;6.90;;;22.70;51.40;;;;;;222291;1269;22647;-53
2023/04/05 12:58:36;;;;;;;9.30;7.20;;;22.70;51.50;;;;;;222123;1263;22516;-53
2023/04/05 13:03:42;;;;;;;7.80;6.50;;;22.70;50.90;;;;;;222418;1258;23971;-63
2023/04/05 13:08:48;;;;;;;15.00;6.80;;;22.70;50.80;;;;;;222260;1254;22702;-59
2023/04/05 13:13:53;;;;;;;12.20;6.50;;;22.80;50.60;;;;;;222095;1264;23943;-53
2023/04/05 13:18:56;;;;;;;10.20;6.10;;;22.70;50.60;;;;;;222138;1256;22521;-57
2023/04/05 13:24:01;;;;;;;8.20;5.70;;;22.60;50.70;;;;;;222407;1247;24193;-52
2023/04/05 13:29:06;;;;;;;9.90;5.90;;;22.60;50.40;;;;;;222264;1262;22616;-56
2023/04/05 13:34:10;;;;;;;9.70;5.90;;;22.40;50.40;;;;;;222301;1269;26557;-58
2023/04/05 13:39:14;;;;;;;11.10;5.70;;;22.40;49.80;;;;;;222208;1267;23913;-54
2023/04/05 13:44:18;;;;;;;8.70;5.30;;;22.30;49.50;;;;;;222314;1265;22536;-57
2023/04/05 13:49:23;;;;;;;5.60;4.70;;;22.30;49.80;;;;;;222463;1262;23877;-51
2023/04/05 13:54:30;;;;;;;9.10;4.40;;;22.30;49.10;;;;;;222373;1263;22523;-55
2023/04/05 13:59:35;;;;;;;7.80;4.30;;;22.20;49.30;;;;;;222278;1256;22514;-55
2023/04/05 14:04:41;;;;;;;5.70;4.40;;;22.20;49.40;;;;;;222328;1265;24225;-57
2023/04/05 14:09:45;;;;;;;6.30;4.00;;;22.10;49.40;;;;;;222416;1269;25221;-61
2023/04/05 14:14:49;;;;;;;7.00;4.30;;;22.10;49.50;;;;;;222452;1254;25333;-59
2023/04/05 14:19:53;;;;;;;7.10;4.20;;;22.10;49.40;;;;;;222401;1256;22584;-61
2023/04/05 14:24:57;;;;;;;5.20;4.00;;;22.10;49.70;;;;;;222441;1265;22526;-54
2023/04/05 14:30:02;;;;;;;5.40;4.00;;;22.10;49.30;;;;;;222445;1262;22495;-53
2023/04/05 14:35:07;;;;;;;6.20;4.20;;;22.10;49.10;;;;;;222483;1263;25076;-64
2023/04/05 14:40:12;;;;;;;4.70;3.50;;;22.20;49.00;;;;;;222503;1265;24219;-68
2023/04/05 14:45:17;;;;;;;8.10;4.00;;;22.20;48.80;;;;;;222336;1246;25614;-56
2023/04/05 14:50:21;;;;;;;6.70;3.90;;;22.10;48.90;;;;;;222443;1262;24266;-57
2023/04/05 14:55:26;;;;;;;4.40;3.30;;;22.20;49.10;;;;;;222419;1253;22507;-48
2023/04/05 15:00:33;;;;;;;12.10;5.50;;;22.00;49.10;;;;;;222615;1265;24039;-50
2023/04/05 15:05:37;;;;;;;10.60;4.40;;;22.10;49.40;;;;;;222292;1253;24219;-52
2023/04/05 15:10:42;;;;;;;9.20;4.50;;;22.20;50.30;;;;;;222375;1257;24237;-51
2023/04/05 15:15:46;;;;;;;7.80;5.10;;;22.10;51.30;;;;;;222189;1255;22513;-56
2023/04/05 15:20:52;;;;;;;16.40;4.70;;;22.10;51.70;;;;;;222445;1261;25589;-52
2023/04/05 15:25:56;;;;;;;14.90;5.20;;;22.10;52.60;;;;;;222228;1264;24341;-45
2023/04/05 15:31:01;;;;;;;10.40;5.10;;;22.10;52.60;;;;;;223261;1260;22685;-46
2023/04/05 15:36:06;;;;;;;6.90;4.30;;;22.10;52.90;;;;;;223066;1254;22515;-49
2023/04/05 15:41:10;;;;;;;6.70;4.00;;;22.20;52.60;;;;;;226788;1269;22497;-47
2023/04/05 15:46:14;;;;;;;9.90;4.30;;;22.30;51.90;;;;;;222170;1264;25354;-48
2023/04/05 15:51:18;;;;;;;9.00;4.20;;;22.30;51.50;;;;;;222471;1256;24363;-46
2023/04/05 15:56:26;;;;;;;6.80;3.70;;;22.20;51.80;;;;;;222397;1254;24246;-45
2023/04/05 16:01:30;;;;;;;9.90;4.00;;;22.10;52.10;;;;;;222326;1263;22532;-47
2023/04/05 16:06:35;;;;;;;7.90;3.90;;;22.00;52.50;;;;;;222333;1263;22750;-47
2023/04/05 16:11:39;;;;;;;9.60;3.40;;;22.00;52.30;;;;;;222376;1262;22525;-46
2023/04/05 16:16:43;;;;;;;5.90;3.70;;;22.00;51.80;;;;;;222585;1264;22576;-49
2023/04/05 16:21:56;;;;;;;8.70;4.00;;;22.00;51.40;;;;;;222315;1254;22514;-51
2023/04/05 16:27:01;;;;;;;7.50;3.20;;;22.00;51.70;;;;;;222538;1263;23033;-51
2023/04/05 16:32:06;;;;;;;4.80;3.20;;;21.90;51.50;;;;;;222532;1257;22520;-50
2023/04/05 16:37:11;;;;;;;6.70;3.60;;;21.80;51.30;;;;;;222588;1254;22623;-52
2023/04/05 16:42:16;;;;;;;5.20;3.20;;;21.80;51.20;;;;;;222104;1264;22984;-48
2023/04/05 16:47:20;;;;;;;6.40;3.50;;;21.70;51.20;;;;;;222260;1254;22520;-49
2023/04/05 16:52:24;;;;;;;6.80;3.60;;;21.70;51.20;;;;;;222436;1257;25258;-50
2023/04/05 16:57:30;;;;;;;4.70;3.20;;;21.70;51.30;;;;;;222423;1258;22563;-48
2023/04/05 17:02:39;;;;;;;6.00;3.30;;;21.80;52.00;;;;;;222404;1264;22794;-46
2023/04/05 17:07:45;;;;;;;12.50;3.70;;;22.00;50.60;;;;;;222450;1260;22515;-46
2023/04/05 17:12:49;;;;;;;6.90;3.40;;;22.20;50.40;;;;;;222286;1254;23888;-52
2023/04/05 17:17:54;;;;;;;12.80;4.00;;;22.20;50.00;;;;;;222305;1264;22625;-53
2023/04/05 17:22:59;;;;;;;11.20;4.20;;;22.30;49.60;;;;;;222440;1254;22513;-50
2023/04/05 17:28:05;;;;;;;8.40;3.60;;;22.40;50.00;;;;;;222274;1255;25265;-50
2023/04/05 17:33:09;;;;;;;6.90;3.80;;;22.40;49.90;;;;;;222535;1261;22762;-52
2023/04/05 17:38:14;;;;;;;7.50;3.50;;;22.50;49.90;;;;;;222530;1254;22522;-49
2023/04/05 17:43:20;;;;;;;4.70;2.70;;;22.50;50.00;;;;;;222572;1261;25260;-49
2023/04/05 17:48:28;;;;;;;9.90;2.90;;;22.60;49.90;;;;;;222358;1256;22626;-49
2023/04/05 17:53:32;;;;;;;8.50;2.90;;;22.60;49.70;;;;;;222234;1254;25433;-52
2023/04/05 17:58:37;;;;;;;8.10;3.80;;;22.60;49.60;;;;;;222369;1264;22640;-47
2023/04/05 18:03:41;;;;;;;6.70;4.20;;;22.60;49.40;;;;;;222237;1254;26554;-49
2023/04/05 18:08:46;;;;;;;8.80;3.90;;;22.60;49.50;;;;;;222411;1257;23875;-49
2023/04/05 18:13:50;;;;;;;6.80;3.20;;;22.60;49.30;;;;;;222302;1254;22777;-47
2023/04/05 18:18:55;;;;;;;15.90;3.70;;;22.50;49.70;;;;;;222311;1254;25375;-51
2023/04/05 18:24:00;;;;;;;4.50;3.30;;;22.40;49.60;;;;;;222312;1263;23083;-48
2023/04/05 18:29:04;;;;;;;8.80;4.00;;;22.30;49.50;;;;;;222134;1254;167090;-48
2023/04/05 18:34:09;;;;;;;6.60;4.10;;;22.40;49.60;;;;;;222220;1263;22653;-48
2023/04/05 18:39:14;;;;;;;12.10;4.90;;;22.40;49.90;;;;;;222497;1254;22518;-47
2023/04/05 18:44:18;;;;;;;11.90;4.60;;;22.40;49.90;;;;;;222566;1260;24228;-47
2023/04/05 18:49:23;;;;;;;23.50;5.10;;;22.60;49.90;;;;;;222684;1256;25256;-50
2023/04/05 18:54:27;;;;;;;10.20;4.40;;;22.60;49.70;;;;;;222210;1263;25215;-51
2023/04/05 18:59:31;;;;;;;9.50;4.70;;;22.70;49.30;;;;;;222331;1262;22507;-51
2023/04/05 19:04:35;;;;;;;14.50;4.90;;;22.70;49.20;;;;;;222776;1262;22518;-52
2023/04/05 19:09:41;;;;;;;12.80;5.10;;;22.60;49.30;;;;;;222611;1261;25489;-51
2023/04/05 19:14:46;;;;;;;14.30;5.30;;;22.70;50.10;;;;;;222268;1248;22533;-48
2023/04/05 19:19:50;;;;;;;9.50;5.10;;;22.60;49.10;;;;;;222577;1261;24408;-59
2023/04/05 19:24:56;;;;;;;14.10;6.00;;;22.60;49.10;;;;;;222611;1246;25319;-51
2023/04/05 19:30:03;;;;;;;10.30;5.80;;;22.50;49.10;;;;;;222445;1247;22510;-52
2023/04/05 19:35:11;;;;;;;13.80;7.00;;;22.40;49.40;;;;;;222511;1262;22631;-53
2023/04/05 19:40:18;;;;;;;16.80;6.00;;;22.40;49.90;;;;;;222505;1255;24268;-52
2023/04/05 19:45:29;;;;;;;15.30;6.10;;;22.50;49.90;;;;;;222644;1255;22773;-47
2023/04/05 19:50:46;;;;;;;12.10;6.00;;;22.40;50.30;;;;;;222248;1254;25296;-50
2023/04/05 19:55:59;;;;;;;15.00;6.80;;;22.30;50.10;;;;;;222437;1264;22514;-55
2023/04/05 20:01:05;;;;;;;13.80;7.00;;;22.30;50.40;;;;;;222533;1269;22948;-52
2023/04/05 20:06:12;;;;;;;15.80;7.40;;;22.30;50.10;;;;;;222317;1262;22497;-51
2023/04/05 20:11:21;;;;;;;20.20;7.10;;;22.20;49.90;;;;;;222289;1263;24239;-53
2023/04/05 20:16:32;;;;;;;17.10;7.80;;;22.20;50.10;;;;;;222550;1255;24148;-55
2023/04/05 20:21:37;;;;;;;15.30;6.90;;;22.10;50.00;;;;;;222391;1262;22765;-54
2023/04/05 20:26:43;;;;;;;16.90;7.30;;;22.10;50.20;;;;;;222603;1262;22532;-54
2023/04/05 20:31:47;;;;;;;16.30;7.30;;;22.00;50.00;;;;;;222162;1255;24371;-52
2023/04/05 20:37:00;;;;;;;16.10;6.90;;;22.10;51.30;;;;;;222087;1256;22548;-53
2023/04/05 20:42:08;;;;;;;15.70;7.10;;;21.90;51.90;;;;;;222499;1262;24216;-56
2023/04/05 20:47:12;;;;;;;19.70;8.90;;;21.90;52.10;;;;;;222296;1262;22559;-52
2023/04/05 20:52:21;;;;;;;14.10;7.80;;;21.90;53.00;;;;;;222513;1257;24196;-53
2023/04/05 20:57:29;;;;;;;15.00;8.00;;;21.80;55.10;;;;;;222546;1255;25137;-51
2023/04/05 21:02:36;;;;;;;13.70;7.10;;;21.80;56.50;;;;;;222428;1255;23014;-50
2023/04/05 21:07:42;;;;;;;16.10;7.20;;;21.80;55.30;;;;;;222604;1253;23154;-50
2023/04/05 21:12:47;;;;;;;15.20;7.50;;;21.70;55.10;;;;;;222426;1246;23960;-55
2023/04/05 21:18:01;;;;;;;16.60;7.30;;;21.70;54.90;;;;;;222585;1257;22514;-55
2023/04/05 21:23:07;;;;;;;17.40;7.50;;;21.70;54.80;;;;;;222540;1255;25256;-54
2023/04/05 21:28:13;;;;;;;14.60;7.30;;;21.70;54.80;;;;;;222363;1256;22523;-53
2023/04/05 21:33:20;;;;;;;12.40;7.10;;;21.60;54.60;;;;;;222459;1258;25317;-53
2023/04/05 21:38:24;;;;;;;13.30;7.40;;;21.60;54.50;;;;;;222418;1255;25282;-53
2023/04/05 21:43:29;;;;;;;11.50;7.20;;;21.60;54.60;;;;;;222406;1262;24354;-52
2023/04/05 21:48:33;;;;;;;15.30;7.00;;;21.60;55.60;;;;;;222502;1255;24058;-55
2023/04/05 21:53:38;;;;;;;11.50;6.70;;;21.90;54.80;;;;;;222638;1255;22657;-52
2023/04/05 21:58:43;;;;;;;13.10;6.80;;;22.10;54.20;;;;;;222460;1262;25590;-50
2023/04/05 22:03:47;;;;;;;10.70;7.00;;;22.20;54.00;;;;;;222461;1262;22516;-55
2023/04/05 22:08:53;;;;;;;13.30;6.60;;;22.30;53.00;;;;;;222402;1253;22778;-53
2023/04/05 22:13:58;;;;;;;12.50;6.40;;;22.40;53.20;;;;;;222434;1255;24192;-59
2023/04/05 22:19:02;;;;;;;17.60;8.70;;;22.40;53.10;;;;;;222382;1256;24040;-48
2023/04/05 22:24:07;;;;;;;10.60;6.60;;;22.40;52.80;;;;;;222434;1262;22521;-48
2023/04/05 22:29:11;;;;;;;14.60;7.30;;;22.40;53.70;;;;;;222393;1256;22605;-46
2023/04/05 22:34:15;;;;;;;13.80;6.90;;;22.40;53.90;;;;;;222366;1260;22588;-47
2023/04/05 22:39:19;;;;;;;14.40;7.40;;;22.40;53.60;;;;;;222570;1255;25439;-46
2023/04/05 22:44:24;;;;;;;12.80;7.50;;;22.40;53.40;;;;;;222515;1255;25261;-46
2023/04/05 22:49:27;;;;;;;15.10;7.40;;;22.40;53.50;;;;;;222677;1255;25304;-50
2023/04/05 22:54:32;;;;;;;13.20;8.60;;;22.40;53.40;;;;;;222479;1256;22629;-47
2023/04/05 22:59:36;;;;;;;10.40;7.30;;;22.40;53.30;;;;;;222381;1253;22766;-46
2023/04/05 23:04:40;;;;;;;13.30;7.80;;;22.40;53.40;;;;;;223765;1255;24405;-47
2023/04/05 23:09:45;;;;;;;13.50;7.90;;;22.40;53.40;;;;;;222491;1248;22917;-47
2023/04/05 23:14:50;;;;;;;16.00;8.30;;;22.30;53.70;;;;;;222151;1261;22531;-45
2023/04/05 23:19:54;;;;;;;16.40;8.60;;;22.30;54.10;;;;;;230184;1262;22327;-50
2023/04/05 23:25:02;;;;;;;13.70;9.00;;;22.40;54.30;;;;;;230243;1262;22255;-49
2023/04/05 23:30:06;;;;;;;16.70;8.50;;;22.50;54.50;;;;;;223023;1254;25530;-48
2023/04/05 23:35:10;;;;;;;10.80;8.40;;;22.50;54.00;;;;;;230252;1262;22235;-47
2023/04/05 23:40:14;;;;;;;12.00;8.40;;;22.50;53.90;;;;;;230155;1262;22084;-48
2023/04/05 23:45:18;;;;;;;12.20;8.80;;;22.60;54.00;;;;;;223388;1253;24322;-48
2023/04/05 23:50:22;;;;;;;12.40;9.00;;;22.70;53.80;;;;;;222621;1255;22517;-50
2023/04/05 23:55:26;;;;;;;13.40;9.30;;;22.70;54.00;;;;;;222519;1255;25525;-48
